Time;durP1;ratioP1;P1;durP2;ratioP2;P2;SDS_P1;SDS_P2;PMS_P1;PMS_P2;Temp;Humidity;BMP_temperature;BMP_pressure;BME280_temperature;BME280_humidity;BME280_pressure;Samples;Min_cycle;Max_cycle;Signal;HPM_P1;HPM_P2
2023/07/19 00:00:34;;;;;;;2.92;2.33;;;;;17.50;94007.00;;;;7398435;19;20589;-80
2023/07/19 00:03:10;;;;;;;4.93;2.65;;;;;17.50;94005.00;;;;7396348;19;20141;-81
2023/07/19 00:05:45;;;;;;;7.75;3.13;;;;;17.30;94023.00;;;;7396068;19;20148;-81
2023/07/19 00:08:19;;;;;;;5.63;3.03;;;;;17.40;94012.00;;;;7393741;19;20140;-80
2023/07/19 00:10:53;;;;;;;5.88;2.78;;;;;17.10;94015.00;;;;7398172;19;20125;-80
2023/07/19 00:13:28;;;;;;;3.95;2.55;;;;;17.30;94019.00;;;;7396113;19;20140;-79
2023/07/19 00:16:03;;;;;;;4.20;3.00;;;;;17.40;94018.00;;;;7395890;19;20161;-81
2023/07/19 00:18:31;;;;;;;5.05;2.50;;;;;17.30;94011.00;;;;7395588;19;20546;-79
2023/07/19 00:21:06;;;;;;;5.95;2.72;;;;;16.90;94010.00;;;;7394902;19;20604;-81
2023/07/19 00:23:33;;;;;;;2.90;2.60;;;;;16.60;94014.00;;;;7394612;19;20145;-81
2023/07/19 00:26:01;;;;;;;4.28;2.80;;;;;16.90;94011.00;;;;7396101;19;20459;-80
2023/07/19 00:28:35;;;;;;;8.30;3.00;;;;;17.30;94002.00;;;;7395108;19;20143;-81
2023/07/19 00:31:09;;;;;;;3.30;2.83;;;;;17.70;94000.00;;;;7396326;19;20149;-80
2023/07/19 00:33:43;;;;;;;3.60;2.53;;;;;17.90;94006.00;;;;7397787;19;20644;-81
2023/07/19 00:36:18;;;;;;;4.20;2.47;;;;;17.80;94012.00;;;;7394157;19;20658;-79
2023/07/19 00:38:54;;;;;;;3.85;2.70;;;;;17.60;94012.00;;;;7394921;19;20228;-80
2023/07/19 00:41:28;;;;;;;3.88;2.45;;;;;17.60;94006.00;;;;7395864;19;20178;-81
2023/07/19 00:44:03;;;;;;;5.78;2.60;;;;;17.80;94011.00;;;;7394140;19;20136;-79
2023/07/19 00:46:41;;;;;;;4.35;2.30;;;;;17.70;94008.00;;;;7394715;19;20197;-79
2023/07/19 00:49:15;;;;;;;4.43;2.45;;;;;17.70;94011.00;;;;7394723;19;20144;-81
2023/07/19 00:51:43;;;;;;;4.38;2.90;;;;;17.50;94007.00;;;;7393912;19;20170;-79
2023/07/19 00:54:26;;;;;;;4.03;2.58;;;;;17.80;94009.00;;;;7392915;19;20529;-81
2023/07/19 00:57:03;;;;;;;3.28;2.60;;;;;18.30;94004.00;;;;7396484;19;20604;-79
2023/07/19 00:59:40;;;;;;;6.97;2.58;;;;;18.00;94020.00;;;;7396112;19;20373;-80
2023/07/19 01:02:09;;;;;;;4.35;2.70;;;;;18.20;94012.00;;;;7389980;19;20671;-78
2023/07/19 01:04:45;;;;;;;3.00;2.38;;;;;18.00;94012.00;;;;7392378;19;20617;-79
2023/07/19 01:07:13;;;;;;;3.38;2.47;;;;;18.10;94005.00;;;;7393595;19;20141;-76
2023/07/19 01:09:49;;;;;;;3.72;2.50;;;;;17.90;94011.00;;;;7393537;19;20236;-79
2023/07/19 01:12:29;;;;;;;4.72;2.50;;;;;17.90;94009.00;;;;7393278;19;20198;-78
2023/07/19 01:15:08;;;;;;;5.18;2.80;;;;;17.90;94019.00;;;;7394607;19;20627;-77
2023/07/19 01:17:43;;;;;;;4.30;2.53;;;;;18.00;94017.00;;;;7393833;19;20145;-77
2023/07/19 01:20:14;;;;;;;4.78;2.80;;;;;18.20;94009.00;;;;7394145;19;20204;-77
2023/07/19 01:22:49;;;;;;;3.10;2.50;;;;;17.90;94019.00;;;;7395750;19;20135;-78
2023/07/19 01:25:17;;;;;;;3.55;2.80;;;;;18.00;94013.00;;;;7392400;19;20145;-77
2023/07/19 01:27:52;;;;;;;7.28;2.70;;;;;18.20;94005.00;;;;7394344;19;20147;-78
2023/07/19 01:30:21;;;;;;;4.13;2.95;;;;;18.20;94003.00;;;;7393301;19;20137;-78
2023/07/19 01:32:59;;;;;;;5.65;3.13;;;;;18.20;94001.00;;;;7393451;19;20498;-78
2023/07/19 01:35:27;;;;;;;6.88;2.80;;;;;18.40;94012.00;;;;7394558;19;20149;-79
2023/07/19 01:38:02;;;;;;;4.68;3.00;;;;;18.50;94011.00;;;;7395198;19;20600;-77
2023/07/19 01:40:38;;;;;;;4.30;3.08;;;;;18.40;93963.00;;;;7401976;19;20227;-78
2023/07/19 01:43:08;;;;;;;6.38;3.00;;;;;18.40;94016.00;;;;7401711;19;20140;-78
2023/07/19 01:45:43;;;;;;;5.82;3.25;;;;;18.30;94004.00;;;;7401336;19;20620;-78
2023/07/19 01:48:13;;;;;;;3.50;2.65;;;;;18.00;94021.00;;;;7400885;19;20137;-79
2023/07/19 01:50:49;;;;;;;5.82;2.60;;;;;18.20;94013.00;;;;7402390;19;20204;-78
2023/07/19 01:53:23;;;;;;;7.20;2.75;;;;;18.20;94014.00;;;;7402726;19;20204;-78
2023/07/19 01:56:03;;;;;;;8.02;3.08;;;;;18.00;94010.00;;;;7400597;19;20289;-79
2023/07/19 01:58:35;;;;;;;6.68;3.30;;;;;17.90;94007.00;;;;7401186;19;20133;-78
2023/07/19 02:01:09;;;;;;;5.93;2.90;;;;;17.60;94011.00;;;;7403859;19;20149;-77
2023/07/19 02:03:40;;;;;;;4.63;3.00;;;;;17.60;94015.00;;;;7400759;19;20158;-79
2023/07/19 02:06:18;;;;;;;5.10;2.78;;;;;17.60;94016.00;;;;7400717;19;20642;-79
2023/07/19 02:08:54;;;;;;;4.22;2.95;;;;;17.50;94018.00;;;;7399839;19;20144;-78
2023/07/19 02:11:24;;;;;;;4.38;3.08;;;;;17.60;94014.00;;;;7400106;19;20140;-78
2023/07/19 02:13:53;;;;;;;4.38;2.92;;;;;17.70;94006.00;;;;7398774;19;20154;-78
2023/07/19 02:16:28;;;;;;;3.80;3.03;;;;;17.80;94008.00;;;;7399450;19;20478;-77
2023/07/19 02:19:05;;;;;;;7.10;3.17;;;;;17.70;94010.00;;;;7398480;19;20162;-76
2023/07/19 02:21:34;;;;;;;4.90;3.30;;;;;17.70;94016.00;;;;7401682;19;20544;-75
2023/07/19 02:24:08;;;;;;;4.78;3.08;;;;;17.50;94018.00;;;;7399351;19;20603;-75
2023/07/19 02:26:36;;;;;;;4.15;2.78;;;;;17.40;94016.00;;;;7398683;19;20133;-78
2023/07/19 02:29:11;;;;;;;5.15;3.28;;;;;17.30;94001.00;;;;7398661;19;20199;-77
2023/07/19 02:31:40;;;;;;;5.68;3.60;;;;;17.50;94014.00;;;;7400142;19;20131;-78
2023/07/19 02:34:18;;;;;;;4.10;3.47;;;;;17.60;94015.00;;;;7398760;19;20158;-76
2023/07/19 02:36:51;;;;;;;7.45;3.08;;;;;17.60;94023.00;;;;7400975;19;20148;-78
2023/07/19 02:39:27;;;;;;;3.83;3.00;;;;;17.50;94017.00;;;;7399858;19;20218;-77
2023/07/19 02:41:56;;;;;;;7.78;3.63;;;;;17.30;94016.00;;;;7398188;19;20216;-79
2023/07/19 02:44:31;;;;;;;7.72;3.70;;;;;17.30;94022.00;;;;7398611;19;20136;-78
2023/07/19 02:46:58;;;;;;;4.82;3.50;;;;;17.40;94028.00;;;;7398055;19;20151;-78
2023/07/19 02:49:35;;;;;;;5.65;3.63;;;;;17.40;94027.00;;;;7396615;19;20200;-77
2023/07/19 02:52:09;;;;;;;8.93;3.95;;;;;17.50;94029.00;;;;7399788;19;20187;-78
2023/07/19 02:54:43;;;;;;;4.57;3.20;;;;;17.50;94031.00;;;;7400679;19;20157;-78
2023/07/19 02:57:19;;;;;;;6.15;3.50;;;;;17.50;94038.00;;;;7397545;19;20132;-76
2023/07/19 02:59:46;;;;;;;6.65;3.20;;;;;17.50;94041.00;;;;7398366;19;20479;-74
2023/07/19 03:02:21;;;;;;;6.78;3.13;;;;;17.70;94043.00;;;;7398088;19;20179;-78
2023/07/19 03:04:56;;;;;;;8.20;3.50;;;;;17.60;94043.00;;;;7396721;19;20208;-78
2023/07/19 03:07:31;;;;;;;5.03;3.33;;;;;17.50;94052.00;;;;7398332;19;20148;-79
2023/07/19 03:10:00;;;;;;;4.40;3.53;;;;;17.70;94053.00;;;;7396062;19;20148;-77
2023/07/19 03:12:43;;;;;;;5.60;3.80;;;;;17.90;94050.00;;;;7394894;19;20290;-78
2023/07/19 03:15:18;;;;;;;5.45;3.53;;;;;17.80;94049.00;;;;7397552;19;20144;-77
2023/07/19 03:17:46;;;;;;;7.25;3.90;;;;;17.80;94053.00;;;;7398566;19;20638;-76
2023/07/19 03:20:21;;;;;;;6.28;3.60;;;;;17.80;94051.00;;;;7396472;19;20228;-76
2023/07/19 03:22:56;;;;;;;6.65;3.60;;;;;17.80;94058.00;;;;7396867;19;20166;-77
2023/07/19 03:25:28;;;;;;;6.72;4.22;;;;;17.80;94057.00;;;;7395511;19;20212;-76
2023/07/19 03:28:03;;;;;;;8.35;3.63;;;;;17.70;94057.00;;;;7396724;19;20620;-79
2023/07/19 03:30:32;;;;;;;8.52;3.95;;;;;17.60;94063.00;;;;7395127;19;20170;-80
2023/07/19 03:33:07;;;;;;;11.88;5.00;;;;;17.60;94062.00;;;;7398437;19;20136;-80
2023/07/19 03:35:43;;;;;;;5.82;4.05;;;;;17.50;94066.00;;;;7395442;19;20140;-80
2023/07/19 03:38:21;;;;;;;6.03;3.60;;;;;17.40;94072.00;;;;7395218;19;20157;-78
2023/07/19 03:40:49;;;;;;;6.88;3.95;;;;;17.50;94062.00;;;;7397320;19;20148;-81
2023/07/19 03:43:19;;;;;;;6.13;4.13;;;;;17.50;94072.00;;;;7395367;19;20159;-79
2023/07/19 03:45:54;;;;;;;4.60;3.67;;;;;17.60;94074.00;;;;7395959;19;20236;-80
2023/07/19 03:48:29;;;;;;;7.18;3.50;;;;;17.50;94068.00;;;;7396362;19;20144;-78
2023/07/19 03:51:00;;;;;;;5.68;3.80;;;;;17.50;94067.00;;;;7395896;19;20470;-79
2023/07/19 03:53:34;;;;;;;7.07;3.95;;;;;17.60;94068.00;;;;7396711;19;20132;-77
2023/07/19 03:56:09;;;;;;;5.80;3.67;;;;;17.60;94078.00;;;;7397704;19;20593;-79
2023/07/19 03:58:39;;;;;;;8.85;3.92;;;;;17.60;94076.00;;;;7395150;19;20164;-80
2023/07/19 04:01:17;;;;;;;8.18;3.40;;;;;17.70;94076.00;;;;7394002;19;20163;-78
2023/07/19 04:03:46;;;;;;;5.85;3.65;;;;;17.70;94087.00;;;;7393655;19;20240;-80
2023/07/19 04:06:21;;;;;;;5.35;3.95;;;;;17.70;94082.00;;;;7395442;19;20148;-81
2023/07/19 04:08:49;;;;;;;5.80;3.60;;;;;17.70;94088.00;;;;7395907;19;20147;-80
2023/07/19 04:11:23;;;;;;;4.63;3.55;;;;;17.70;94084.00;;;;7397205;19;20912;-79
2023/07/19 04:13:58;;;;;;;9.82;4.00;;;;;17.70;94083.00;;;;7395857;19;20141;-77
2023/07/19 04:16:33;;;;;;;5.22;3.53;;;;;17.70;94087.00;;;;7397464;19;20143;-80
2023/07/19 04:19:07;;;;;;;7.28;3.70;;;;;17.70;94076.00;;;;7395421;19;20132;-81
2023/07/19 04:21:42;;;;;;;7.00;3.50;;;;;17.70;94084.00;;;;7394792;19;20517;-80
2023/07/19 04:24:18;;;;;;;8.60;3.45;;;;;17.60;94079.00;;;;7395632;19;20176;-80
2023/07/19 04:26:53;;;;;;;4.95;3.70;;;;;17.60;94087.00;;;;7396238;19;20133;-80
2023/07/19 04:29:28;;;;;;;7.20;3.95;;;;;17.50;94080.00;;;;7394311;19;20144;-79
2023/07/19 04:32:02;;;;;;;4.28;3.33;;;;;17.60;94092.00;;;;7395485;19;20147;-82
2023/07/19 04:34:30;;;;;;;5.00;3.30;;;;;17.70;94092.00;;;;7394613;19;20493;-79
2023/07/19 04:36:57;;;;;;;4.95;3.55;;;;;17.80;94086.00;;;;7394206;19;20152;-82
2023/07/19 04:39:32;;;;;;;6.38;3.88;;;;;17.70;94082.00;;;;7397388;19;20144;-80
2023/07/19 04:42:00;;;;;;;8.13;3.60;;;;;17.80;94082.00;;;;7398962;19;20593;-80
2023/07/19 04:44:31;;;;;;;6.88;3.47;;;;;17.90;94080.00;;;;7398636;19;20149;-82
2023/07/19 04:47:06;;;;;;;7.75;3.72;;;;;17.80;94079.00;;;;7396704;19;20149;-79
2023/07/19 04:49:41;;;;;;;8.73;3.60;;;;;18.00;94083.00;;;;7393696;19;20152;-79
2023/07/19 04:52:15;;;;;;;4.82;3.72;;;;;18.20;94080.00;;;;7395130;19;20136;-77
2023/07/19 04:54:47;;;;;;;7.32;3.33;;;;;18.30;94079.00;;;;7395116;19;20125;-78
2023/07/19 04:57:23;;;;;;;5.10;3.55;;;;;18.30;94066.00;;;;7395828;19;20636;-79
2023/07/19 04:59:59;;;;;;;4.55;3.28;;;;;18.40;94067.00;;;;7394486;19;20144;-80
2023/07/19 05:02:37;;;;;;;4.95;3.17;;;;;18.40;94057.00;;;;7394450;19;20176;-80
2023/07/19 05:05:06;;;;;;;8.07;3.63;;;;;18.40;94050.00;;;;7396112;19;20196;-81
2023/07/19 05:07:40;;;;;;;5.15;3.45;;;;;18.60;94053.00;;;;7395053;19;20148;-79
2023/07/19 05:10:17;;;;;;;7.68;3.55;;;;;18.50;94053.00;;;;7395723;19;20174;-80
2023/07/19 05:13:04;;;;;;;6.82;3.83;;;;;18.80;94048.00;;;;7397287;19;20168;-80
2023/07/19 05:15:39;;;;;;;4.85;3.83;;;;;18.90;94043.00;;;;7406099;19;20155;-80
2023/07/19 05:18:13;;;;;;;5.35;3.80;;;;;18.90;94039.00;;;;7407792;19;20129;-81
2023/07/19 05:20:42;;;;;;;7.60;3.88;;;;;18.90;94049.00;;;;7403988;19;20137;-79
2023/07/19 05:23:27;;;;;;;6.72;3.63;;;;;19.00;94048.00;;;;7399773;19;20143;-82
2023/07/19 05:25:55;;;;;;;9.43;3.35;;;;;19.10;94049.00;;;;7397255;19;20581;-82
2023/07/19 05:28:29;;;;;;;5.30;3.30;;;;;19.30;94050.00;;;;7402509;19;20601;-81
2023/07/19 05:31:04;;;;;;;6.53;3.45;;;;;19.30;94047.00;;;;7399628;19;20149;-82
2023/07/19 05:33:40;;;;;;;7.38;3.63;;;;;19.40;94047.00;;;;7403969;19;20451;-80
2023/07/19 05:36:15;;;;;;;6.63;3.40;;;;;19.60;94044.00;;;;7402581;19;20463;-82
2023/07/19 05:38:49;;;;;;;4.07;3.50;;;;;19.60;94047.00;;;;7387370;19;20127;-82
2023/07/19 05:41:23;;;;;;;4.75;3.65;;;;;19.50;94060.00;;;;7383319;19;20593;-79
2023/07/19 05:43:53;;;;;;;6.95;3.75;;;;;19.70;94056.00;;;;7391103;19;20133;-83
2023/07/19 05:46:38;;;;;;;8.07;3.53;;;;;19.80;94061.00;;;;7390669;19;20529;-81
2023/07/19 05:49:06;;;;;;;5.70;3.20;;;;;19.90;94046.00;;;;7391535;19;20140;-78
2023/07/19 05:51:41;;;;;;;4.82;3.35;;;;;20.10;94059.00;;;;7393681;19;20154;-76
2023/07/19 05:54:10;;;;;;;3.88;3.28;;;;;20.00;94061.00;;;;7396184;19;20125;-76
2023/07/19 05:56:46;;;;;;;6.55;3.78;;;;;20.20;94063.00;;;;7392238;19;20152;-78
2023/07/19 05:59:20;;;;;;;5.47;3.55;;;;;20.30;94066.00;;;;7389279;19;20219;-77
2023/07/19 06:01:48;;;;;;;5.25;3.22;;;;;20.40;94072.00;;;;7391142;19;20611;-77
2023/07/19 06:04:22;;;;;;;6.53;3.30;;;;;20.60;94075.00;;;;7388073;19;20227;-75
2023/07/19 06:06:50;;;;;;;7.97;3.38;;;;;20.50;94070.00;;;;7388933;19;20141;-75
2023/07/19 06:09:26;;;;;;;10.18;3.65;;;;;20.90;94079.00;;;;7389667;19;20149;-74
2023/07/19 06:11:56;;;;;;;7.70;3.70;;;;;21.00;94076.00;;;;7390064;19;20125;-76
2023/07/19 06:14:41;;;;;;;5.10;3.67;;;;;21.10;94097.00;;;;7389888;19;20164;-76
2023/07/19 06:17:11;;;;;;;6.15;3.30;;;;;21.50;94085.00;;;;7389440;19;20148;-77
2023/07/19 06:19:48;;;;;;;6.05;3.35;;;;;22.00;94088.00;;;;7389605;19;20128;-78
2023/07/19 06:22:16;;;;;;;6.05;3.28;;;;;22.00;94092.00;;;;7390622;19;20156;-75
2023/07/19 06:24:53;;;;;;;7.25;3.42;;;;;22.60;94090.00;;;;7386400;19;20480;-75
2023/07/19 06:27:21;;;;;;;6.80;3.33;;;;;22.50;94091.00;;;;7389293;19;20129;-80
2023/07/19 06:29:55;;;;;;;4.13;3.08;;;;;23.30;94088.00;;;;7387554;19;20494;-77
2023/07/19 06:32:23;;;;;;;4.55;3.17;;;;;23.50;94094.00;;;;7388249;19;20183;-77
2023/07/19 06:34:58;;;;;;;5.53;3.40;;;;;23.10;94106.00;;;;7390067;19;20146;-76
2023/07/19 06:37:26;;;;;;;5.55;3.03;;;;;23.00;94095.00;;;;7388655;19;20159;-78
2023/07/19 06:39:56;;;;;;;5.28;2.88;;;;;23.00;94093.00;;;;7387588;19;20208;-77
2023/07/19 06:42:34;;;;;;;4.40;2.80;;;;;22.50;94095.00;;;;7388448;19;20136;-76
2023/07/19 06:45:03;;;;;;;4.80;3.30;;;;;22.70;94109.00;;;;7387130;19;20486;-78
2023/07/19 06:47:37;;;;;;;8.25;3.38;;;;;22.40;94098.00;;;;7387571;19;20136;-77
2023/07/19 06:50:08;;;;;;;5.35;3.17;;;;;22.30;94103.00;;;;7386759;19;20129;-76
2023/07/19 06:52:45;;;;;;;6.80;2.75;;;;;22.20;94105.00;;;;7387341;19;20615;-78
2023/07/19 06:55:19;;;;;;;3.72;2.75;;;;;22.30;94102.00;;;;7386835;19;20160;-76
2023/07/19 06:57:53;;;;;;;7.57;2.90;;;;;22.40;94107.00;;;;7387431;19;20156;-77
2023/07/19 07:00:21;;;;;;;4.28;2.60;;;;;22.40;94105.00;;;;7387807;19;20139;-77
2023/07/19 07:02:55;;;;;;;4.40;2.63;;;;;22.30;94107.00;;;;7388714;19;20621;-76
2023/07/19 07:05:23;;;;;;;7.97;3.00;;;;;22.50;94103.00;;;;7387740;19;20492;-78
2023/07/19 07:07:58;;;;;;;4.32;2.58;;;;;22.30;94104.00;;;;7386930;19;20127;-79
2023/07/19 07:10:28;;;;;;;6.72;2.38;;;;;22.10;94089.00;;;;7387701;19;20169;-79
2023/07/19 07:12:58;;;;;;;4.20;2.53;;;;;22.10;94097.00;;;;7390195;19;20159;-80
2023/07/19 07:15:32;;;;;;;6.50;2.83;;;;;22.20;94096.00;;;;7391352;19;20604;-75
2023/07/19 07:18:00;;;;;;;4.45;2.53;;;;;22.10;94094.00;;;;7389442;19;20208;-77
2023/07/19 07:20:29;;;;;;;9.57;2.70;;;;;22.20;94098.00;;;;7388791;19;20660;-77
2023/07/19 07:23:04;;;;;;;3.38;2.50;;;;;22.60;94093.00;;;;7390958;19;20523;-78
2023/07/19 07:25:38;;;;;;;5.18;2.58;;;;;22.70;94092.00;;;;7388307;19;20647;-79
2023/07/19 07:28:12;;;;;;;5.43;2.70;;;;;23.00;94091.00;;;;7387727;19;20152;-78
2023/07/19 07:30:50;;;;;;;3.33;2.38;;;;;22.90;94093.00;;;;7387111;19;20149;-79
2023/07/19 07:33:29;;;;;;;6.13;2.47;;;;;23.40;94094.00;;;;7388740;19;20140;-76
2023/07/19 07:35:57;;;;;;;2.63;2.35;;;;;23.00;94093.00;;;;7385074;19;20153;-75
2023/07/19 07:38:33;;;;;;;4.90;2.45;;;;;23.20;94088.00;;;;7387742;19;20672;-76
2023/07/19 07:41:06;;;;;;;3.83;2.00;;;;;23.00;94078.00;;;;7387683;19;20143;-78
2023/07/19 07:43:40;;;;;;;4.80;2.42;;;;;22.80;94094.00;;;;7385997;19;20184;-76
2023/07/19 07:46:09;;;;;;;5.07;2.60;;;;;23.20;94083.00;;;;7387963;19;20172;-80
2023/07/19 07:48:44;;;;;;;5.00;2.20;;;;;23.60;94092.00;;;;7387439;19;20216;-79
2023/07/19 07:51:12;;;;;;;3.58;2.10;;;;;22.90;94090.00;;;;7385720;19;20175;-80
2023/07/19 07:53:47;;;;;;;2.28;1.90;;;;;23.90;94092.00;;;;7388283;19;20156;-82
2023/07/19 07:56:23;;;;;;;9.13;2.00;;;;;23.90;94092.00;;;;7389593;19;20597;-80
2023/07/19 07:58:58;;;;;;;5.15;2.15;;;;;23.60;94088.00;;;;7389608;19;20572;-79
2023/07/19 08:01:32;;;;;;;4.65;1.90;;;;;23.80;94087.00;;;;7387684;19;20120;-81
2023/07/19 08:04:01;;;;;;;3.95;1.85;;;;;23.70;94091.00;;;;7387702;19;20192;-81
2023/07/19 08:06:37;;;;;;;4.65;1.90;;;;;24.10;94082.00;;;;7388670;19;20173;-79
2023/07/19 08:09:06;;;;;;;3.38;1.90;;;;;24.30;94081.00;;;;7386361;19;20153;-79
2023/07/19 08:11:40;;;;;;;4.53;1.90;;;;;23.90;94105.00;;;;7385923;19;20148;-80
2023/07/19 08:14:15;;;;;;;6.47;2.13;;;;;24.30;94087.00;;;;7388887;19;20220;-80
2023/07/19 08:16:52;;;;;;;4.35;1.75;;;;;24.20;94091.00;;;;7388317;19;20152;-80
2023/07/19 08:19:20;;;;;;;4.88;2.15;;;;;24.70;94088.00;;;;7386729;19;20163;-80
2023/07/19 08:21:47;;;;;;;5.88;1.90;;;;;24.50;94086.00;;;;7385047;19;20148;-80
2023/07/19 08:24:21;;;;;;;3.60;1.75;;;;;24.60;94083.00;;;;7384681;19;20192;-81
2023/07/19 08:26:55;;;;;;;3.75;1.88;;;;;24.80;94082.00;;;;7383941;19;20137;-78
2023/07/19 08:29:29;;;;;;;6.57;1.90;;;;;24.70;94087.00;;;;7383345;19;20628;-79
2023/07/19 08:31:57;;;;;;;5.65;2.10;;;;;24.30;94089.00;;;;7385133;19;20156;-80
2023/07/19 08:34:32;;;;;;;7.18;2.20;;;;;24.40;94082.00;;;;7384757;19;20136;-79
2023/07/19 08:37:00;;;;;;;7.05;2.03;;;;;24.90;94078.00;;;;7386160;19;20152;-79
2023/07/19 08:39:34;;;;;;;6.15;1.90;;;;;25.20;94074.00;;;;7384146;19;20149;-79
2023/07/19 08:42:03;;;;;;;5.65;1.88;;;;;24.90;94087.00;;;;7384184;19;20161;-78
2023/07/19 08:44:37;;;;;;;3.33;1.80;;;;;24.10;94075.00;;;;7385502;19;20641;-81
2023/07/19 08:47:06;;;;;;;3.38;1.98;;;;;24.50;94071.00;;;;7385423;19;20546;-79
2023/07/19 08:49:42;;;;;;;11.52;1.85;;;;;24.40;94078.00;;;;7393664;19;20170;-79
2023/07/19 08:52:19;;;;;;;6.88;2.20;;;;;24.30;94069.00;;;;7392905;19;20592;-80
2023/07/19 08:54:54;;;;;;;5.45;1.77;;;;;25.20;94068.00;;;;7391859;19;20132;-79
2023/07/19 08:57:22;;;;;;;4.93;2.03;;;;;24.90;94075.00;;;;7391056;19;20186;-79
2023/07/19 08:59:58;;;;;;;6.95;1.77;;;;;24.80;94070.00;;;;7390038;19;20143;-78
2023/07/19 09:02:26;;;;;;;3.58;1.95;;;;;25.10;94070.00;;;;7389765;19;20179;-80
2023/07/19 09:05:06;;;;;;;4.47;1.70;;;;;24.70;94066.00;;;;7388206;19;20139;-80
2023/07/19 09:07:46;;;;;;;8.75;2.08;;;;;25.30;94060.00;;;;7389659;19;20157;-81
2023/07/19 09:10:21;;;;;;;3.78;1.40;;;;;24.50;94060.00;;;;7390270;19;20164;-79
2023/07/19 09:12:50;;;;;;;3.47;1.83;;;;;25.10;94055.00;;;;7390893;19;20628;-79
2023/07/19 09:15:33;;;;;;;3.80;1.63;;;;;25.30;94048.00;;;;7390665;19;20124;-79
2023/07/19 09:18:07;;;;;;;6.97;2.08;;;;;25.40;94053.00;;;;7390464;19;20152;-80
2023/07/19 09:20:45;;;;;;;4.95;1.60;;;;;25.50;94042.00;;;;7392149;19;20132;-78
2023/07/19 09:23:23;;;;;;;6.68;2.00;;;;;26.30;94047.00;;;;7394075;19;20138;-78
2023/07/19 09:25:55;;;;;;;6.25;2.20;;;;;25.80;94051.00;;;;7389817;19;20181;-80
2023/07/19 09:28:30;;;;;;;4.70;2.00;;;;;25.70;94040.00;;;;7391868;19;20203;-79
2023/07/19 09:31:05;;;;;;;2.72;1.98;;;;;26.10;94045.00;;;;7393918;19;20133;-79
2023/07/19 09:33:56;;;;;;;9.25;2.47;;;;;26.20;94040.00;;;;7391189;19;20133;-78
2023/07/19 09:36:29;;;;;;;7.20;2.15;;;;;26.00;94035.00;;;;7390264;19;20487;-76
2023/07/19 09:39:05;;;;;;;7.40;1.80;;;;;25.50;94053.00;;;;7389216;19;20651;-78
2023/07/19 09:41:34;;;;;;;4.95;1.88;;;;;25.80;94030.00;;;;7390172;19;20752;-78
2023/07/19 09:44:09;;;;;;;8.10;2.30;;;;;26.20;94037.00;;;;7388199;19;20136;-78
2023/07/19 09:46:44;;;;;;;5.90;1.80;;;;;26.70;94033.00;;;;7388458;19;20199;-78
2023/07/19 09:49:15;;;;;;;3.75;2.20;;;;;26.60;94027.00;;;;7389347;19;20133;-79
2023/07/19 09:51:51;;;;;;;4.80;2.25;;;;;26.70;94016.00;;;;7389969;19;20590;-77
2023/07/19 09:54:28;;;;;;;5.30;2.22;;;;;26.70;94021.00;;;;7390286;19;20663;-77
2023/07/19 09:57:05;;;;;;;5.97;2.30;;;;;26.80;94024.00;;;;7389871;19;20569;-78
2023/07/19 09:59:38;;;;;;;7.10;2.20;;;;;26.80;94018.00;;;;7388031;19;20133;-76
2023/07/19 10:02:14;;;;;;;6.85;2.63;;;;;26.60;94018.00;;;;7389393;19;20186;-77
2023/07/19 10:04:50;;;;;;;5.80;1.70;;;;;27.50;94014.00;;;;7390958;19;20469;-76
2023/07/19 10:07:29;;;;;;;6.25;1.90;;;;;28.30;94021.00;;;;7389625;19;20692;-78
2023/07/19 10:10:19;;;;;;;12.48;2.30;;;;;28.90;94024.00;;;;7390115;19;20137;-83
2023/07/19 10:12:54;;;;;;;3.55;2.00;;;;;28.90;94020.00;;;;7392541;19;20629;-80
2023/07/19 10:15:36;;;;;;;2.97;2.03;;;;;27.20;94027.00;;;;7393245;19;20182;-80
2023/07/19 10:18:12;;;;;;;5.30;1.90;;;;;27.80;94022.00;;;;7387663;19;20516;-80
2023/07/19 10:20:40;;;;;;;7.45;2.10;;;;;28.00;94010.00;;;;7388211;19;20152;-78
2023/07/19 10:23:15;;;;;;;6.78;2.53;;;;;28.30;94010.00;;;;7388136;19;20144;-79
2023/07/19 10:25:50;;;;;;;4.38;2.15;;;;;28.20;94001.00;;;;7387598;19;20535;-77
2023/07/19 10:28:31;;;;;;;10.75;2.25;;;;;27.70;94006.00;;;;7387757;19;20624;-83
2023/07/19 10:31:07;;;;;;;6.15;2.17;;;;;27.10;94001.00;;;;7390355;19;20167;-78
2023/07/19 10:33:55;;;;;;;4.57;2.13;;;;;28.90;93994.00;;;;7391110;19;20166;-80
2023/07/19 10:36:29;;;;;;;11.38;2.40;;;;;30.50;93992.00;;;;7390601;19;20148;-81
2023/07/19 10:39:03;;;;;;;2.95;2.15;;;;;29.50;94002.00;;;;7378184;19;20493;-78
2023/07/19 10:41:31;;;;;;;8.13;2.33;;;;;29.90;94026.00;;;;7389961;19;20140;-76
2023/07/19 10:44:00;;;;;;;4.72;2.47;;;;;29.10;93994.00;;;;7387814;19;20136;-77
2023/07/19 10:46:38;;;;;;;5.57;2.20;;;;;28.90;94036.00;;;;7388808;19;20136;-83
2023/07/19 10:49:13;;;;;;;6.93;2.60;;;;;27.80;94052.00;;;;7389956;19;20136;-81
2023/07/19 10:51:53;;;;;;;6.50;2.15;;;;;26.20;94050.00;;;;7390184;19;20250;-81
2023/07/19 10:54:22;;;;;;;6.82;2.90;;;;;26.50;94045.00;;;;7389566;19;20173;-81
2023/07/19 10:57:22;;;;;;;4.43;2.22;;;;;25.80;94046.00;;;;7391134;19;20144;-81
2023/07/19 10:59:51;;;;;;;5.60;2.47;;;;;26.50;94039.00;;;;7393965;19;20423;-80
2023/07/19 11:02:26;;;;;;;3.85;2.25;;;;;26.40;94045.00;;;;7393069;19;20159;-81
2023/07/19 11:04:54;;;;;;;5.10;2.42;;;;;26.10;94050.00;;;;7387362;19;20156;-80
2023/07/19 11:07:35;;;;;;;4.97;2.28;;;;;26.10;94024.00;;;;7393255;19;20152;-80
2023/07/19 11:10:09;;;;;;;7.25;2.50;;;;;26.70;94038.00;;;;7389126;19;20152;-78
2023/07/19 11:12:57;;;;;;;4.70;2.60;;;;;25.70;94037.00;;;;7388053;19;20208;-82
2023/07/19 11:15:31;;;;;;;4.80;2.67;;;;;25.30;94017.00;;;;7385387;19;20140;-82
2023/07/19 11:18:06;;;;;;;4.55;2.50;;;;;26.10;94019.00;;;;7384407;19;20239;-80
2023/07/19 11:20:39;;;;;;;5.00;2.63;;;;;26.60;94012.00;;;;7386337;19;20152;-80
2023/07/19 11:23:23;;;;;;;7.32;3.05;;;;;26.20;94010.00;;;;7386819;19;21030;-83
2023/07/19 11:26:14;;;;;;;9.57;2.40;;;;;26.60;94004.00;;;;7388187;19;20153;-80
2023/07/19 11:28:54;;;;;;;4.72;2.50;;;;;26.70;94007.00;;;;7390059;19;20160;-81
2023/07/19 11:31:32;;;;;;;6.88;2.42;;;;;27.00;94003.00;;;;7391250;19;20151;-80
2023/07/19 11:34:16;;;;;;;7.18;2.90;;;;;28.00;93989.00;;;;7394508;19;20132;-80
2023/07/19 11:36:51;;;;;;;4.75;2.63;;;;;28.40;94003.00;;;;7392665;19;20143;-81
2023/07/19 11:39:23;;;;;;;4.20;2.22;;;;;27.20;94004.00;;;;7390009;19;20145;-80
2023/07/19 11:41:59;;;;;;;3.60;2.25;;;;;26.50;94013.00;;;;7391931;19;20129;-81
2023/07/19 11:44:44;;;;;;;4.45;2.70;;;;;26.50;93964.00;;;;7389035;19;20129;-83
2023/07/19 11:47:21;;;;;;;5.10;2.65;;;;;27.90;93991.00;;;;7391393;19;20153;-82
2023/07/19 11:49:59;;;;;;;3.08;2.45;;;;;28.50;93963.00;;;;7398849;19;20125;-83
2023/07/19 11:52:51;;;;;;;6.60;2.28;;;;;28.60;93959.00;;;;7389851;19;20133;-80
2023/07/19 11:55:25;;;;;;;3.97;2.47;;;;;29.10;93960.00;;;;7384596;19;20511;-82
2023/07/19 11:58:02;;;;;;;3.35;2.50;;;;;29.20;93971.00;;;;7388238;19;20192;-83
2023/07/19 12:00:32;;;;;;;11.30;2.90;;;;;29.10;93965.00;;;;7388544;19;20244;-81
2023/07/19 12:03:07;;;;;;;4.88;2.75;;;;;29.60;93910.00;;;;7387192;19;20155;-85
2023/07/19 12:05:42;;;;;;;4.53;2.75;;;;;30.00;93960.00;;;;7386780;19;20134;-80
2023/07/19 12:08:19;;;;;;;3.78;2.72;;;;;29.00;93986.00;;;;7389302;19;20143;-86
2023/07/19 12:10:47;;;;;;;4.80;2.55;;;;;27.20;93987.00;;;;7387516;19;20129;-80
2023/07/19 12:13:23;;;;;;;5.10;2.95;;;;;26.20;94005.00;;;;7387857;19;20603;-80
2023/07/19 12:16:04;;;;;;;11.00;2.70;;;;;25.50;94015.00;;;;7389144;19;20136;-84
2023/07/19 12:18:40;;;;;;;4.03;2.35;;;;;25.20;94006.00;;;;7390137;19;20182;-86
2023/07/19 12:21:08;;;;;;;6.25;2.92;;;;;25.00;94005.00;;;;7390869;19;20597;-83
2023/07/19 12:23:43;;;;;;;4.00;2.70;;;;;25.20;93993.00;;;;7390009;19;20144;-85
2023/07/19 12:26:26;;;;;;;6.82;3.13;;;;;26.70;93965.00;;;;7388612;19;20592;-83
2023/07/19 12:29:02;;;;;;;7.30;2.40;;;;;26.80;93990.00;;;;7392741;19;20173;-85
2023/07/19 12:31:36;;;;;;;8.18;3.20;;;;;26.80;93991.00;;;;7390435;19;20128;-82
2023/07/19 12:34:10;;;;;;;4.57;3.33;;;;;26.90;93982.00;;;;7391354;19;20133;-85
2023/07/19 12:36:49;;;;;;;6.70;3.75;;;;;26.60;93988.00;;;;7386932;19;20159;-78
2023/07/19 12:39:26;;;;;;;8.35;3.92;;;;;26.90;93975.00;;;;7383523;19;20179;-78
2023/07/19 12:41:55;;;;;;;5.03;3.50;;;;;26.80;93976.00;;;;7385939;19;20137;-78
2023/07/19 12:44:28;;;;;;;5.18;3.53;;;;;27.40;93965.00;;;;7390823;19;20129;-83
2023/07/19 12:47:09;;;;;;;6.93;3.42;;;;;28.30;93965.00;;;;7382243;19;20163;-79
2023/07/19 12:49:43;;;;;;;5.45;4.07;;;;;27.30;93968.00;;;;7385935;19;20154;-76
2023/07/19 12:52:12;;;;;;;8.07;3.83;;;;;27.10;93961.00;;;;7385206;19;20507;-77